createdAt,value
2022-12-08T00:04:29.142Z,99215.08
2022-12-08T00:09:39.500Z,99215.45
2022-12-08T00:14:45.805Z,99211.86
2022-12-08T00:19:50.747Z,99217.52
2022-12-08T00:24:53.955Z,99218.51
2022-12-08T00:29:56.999Z,99227.14
2022-12-08T00:35:00.299Z,99234.52
2022-12-08T00:40:04.612Z,99242.22
2022-12-08T00:45:08.323Z,99254.24
2022-12-08T00:50:11.836Z,99258.23
2022-12-08T00:55:15.047Z,99264.84
2022-12-08T01:00:18.355Z,99272.83
2022-12-08T01:05:21.563Z,99274.77
2022-12-08T01:10:25.184Z,99275.31
2022-12-08T01:15:28.388Z,99278.32
2022-12-08T01:20:31.706Z,99283.38
2022-12-08T01:25:35.672Z,99287.91
2022-12-08T01:30:40.095Z,99293.45
2022-12-08T01:35:43.269Z,99289.35
2022-12-08T01:40:46.581Z,99295.30
2022-12-08T01:45:49.734Z,99301.91
2022-12-08T01:50:55.896Z,99303.64
2022-12-08T01:56:07.264Z,99305.05
2022-12-08T02:01:11.662Z,99306.54
2022-12-08T02:06:16.442Z,99311.23
2022-12-08T02:11:19.754Z,99312.64
2022-12-08T02:16:32.120Z,99311.60
2022-12-08T02:21:42.349Z,99310.13
2022-12-08T02:27:29.748Z,99307.51
2022-12-08T02:33:07.203Z,99311.83
2022-12-08T02:38:32.635Z,99315.17
2022-12-08T02:43:43.112Z,99321.91
2022-12-08T02:48:47.034Z,99330.88
2022-12-08T02:53:50.727Z,99332.41
2022-12-08T02:59:33.183Z,99335.04
2022-12-08T03:04:48.900Z,99344.63
2022-12-08T03:10:03.596Z,99350.99
2022-12-08T03:15:11.622Z,99355.49
2022-12-08T03:20:21.033Z,99352.42
2022-12-08T03:25:28.031Z,99357.12
2022-12-08T03:30:36.214Z,99361.38
2022-12-08T03:35:41.758Z,99361.38
2022-12-08T03:41:06.122Z,99369.02
2022-12-08T03:46:09.344Z,99378.96
2022-12-08T03:51:13.151Z,99381.06
2022-12-08T03:56:26.939Z,99380.54
2022-12-08T04:01:30.584Z,99383.48
2022-12-08T04:06:33.937Z,99385.13
2022-12-08T04:11:36.939Z,99391.95
2022-12-08T04:16:40.457Z,99392.48
2022-12-08T04:21:43.766Z,99396.44
2022-12-08T04:26:47.178Z,99399.77
2022-12-08T04:31:51.028Z,99404.71
2022-12-08T04:36:54.315Z,99411.00
2022-12-08T04:41:57.519Z,99415.52
2022-12-08T04:47:00.809Z,99415.98
2022-12-08T04:52:03.933Z,99426.86
2022-12-08T04:57:07.040Z,99435.62
2022-12-08T05:02:10.507Z,99435.13
2022-12-08T05:07:13.866Z,99438.38
2022-12-08T05:12:17.279Z,99441.08
2022-12-08T05:17:21.510Z,99436.67
2022-12-08T05:22:24.616Z,99442.42
2022-12-08T05:27:28.235Z,99445.91
2022-12-08T05:32:32.056Z,99448.92
2022-12-08T05:37:35.125Z,99450.90
2022-12-08T05:42:38.371Z,99454.30
2022-12-08T05:47:41.575Z,99460.51
2022-12-08T05:52:44.803Z,99463.41
2022-12-08T05:57:47.891Z,99461.48
2022-12-08T06:02:51.256Z,99467.77
2022-12-08T06:07:54.993Z,99473.75
2022-12-08T06:12:58.331Z,99483.41
2022-12-08T06:18:01.437Z,99488.63
2022-12-08T06:23:05.055Z,99495.36
2022-12-08T06:28:08.775Z,99498.63
2022-12-08T06:33:11.981Z,99502.18
2022-12-08T06:38:15.301Z,99503.48
2022-12-08T06:43:19.216Z,99508.45
2022-12-08T06:48:22.527Z,99515.67
2022-12-08T06:53:25.631Z,99516.23
2022-12-08T06:58:29.152Z,99518.76
2022-12-08T07:03:32.462Z,99527.16
2022-12-08T07:08:35.509Z,99540.66
2022-12-08T07:13:39.087Z,99545.68
2022-12-08T07:18:43.313Z,99546.07
2022-12-08T07:23:52.727Z,99554.11
2022-12-08T07:29:01.146Z,99559.90
2022-12-08T07:34:05.132Z,99561.85
2022-12-08T07:39:09.865Z,99575.29
2022-12-08T07:44:13.071Z,99584.98
2022-12-08T07:49:16.278Z,99593.60
2022-12-08T07:54:19.487Z,99593.02
2022-12-08T07:59:22.910Z,99597.08
2022-12-08T08:04:27.270Z,99603.03
2022-12-08T08:09:30.406Z,99605.23
2022-12-08T08:14:34.059Z,99599.82
2022-12-08T08:19:37.165Z,99602.50
2022-12-08T08:24:44.693Z,99605.30
2022-12-08T08:29:48.410Z,99611.77
2022-12-08T08:34:52.423Z,99615.78
2022-12-08T08:39:55.630Z,99620.67
2022-12-08T08:44:58.733Z,99630.46
2022-12-08T08:50:02.520Z,99637.72
2022-12-08T08:55:07.096Z,99640.44
2022-12-08T09:00:11.159Z,99641.36
2022-12-08T09:05:14.739Z,99645.40
2022-12-08T09:10:18.356Z,99648.43
2022-12-08T09:15:22.076Z,99656.02
2022-12-08T09:20:25.591Z,99656.45
2022-12-08T09:25:29.208Z,99662.33
2022-12-08T09:30:32.415Z,99662.03
2022-12-08T09:35:35.949Z,99663.15
2022-12-08T09:40:44.055Z,99668.01
2022-12-08T09:45:48.745Z,99666.52
2022-12-08T09:50:57.489Z,99667.44
2022-12-08T09:56:36.010Z,99666.45
2022-12-08T10:01:42.237Z,99656.73
2022-12-08T10:06:55.289Z,99651.04
2022-12-08T10:12:23.890Z,99648.20
2022-12-08T10:17:34.673Z,99646.70
2022-12-08T10:22:44.288Z,99645.79
2022-12-08T10:27:54.457Z,99643.80
2022-12-08T10:32:57.632Z,99642.45
2022-12-08T10:38:04.148Z,99637.26
2022-12-08T10:43:17.851Z,99633.56
2022-12-08T10:48:31.440Z,99638.17
2022-12-08T10:53:45.914Z,99642.64
2022-12-08T10:58:49.080Z,99638.33
2022-12-08T11:03:56.791Z,99629.41
2022-12-08T11:09:20.275Z,99625.38
2022-12-08T11:14:23.585Z,99620.83
2022-12-08T11:19:30.668Z,99613.75
2022-12-08T11:24:37.656Z,99609.91
2022-12-08T11:29:41.504Z,99601.08
2022-12-08T11:34:50.814Z,99596.40
2022-12-08T11:39:58.014Z,99591.45
2022-12-08T11:45:13.064Z,99590.31
2022-12-08T11:50:28.948Z,99587.78
2022-12-08T11:55:52.635Z,99583.88
2022-12-08T12:00:55.739Z,99580.14
2022-12-08T12:06:18.364Z,99569.70
2022-12-08T12:11:58.171Z,99567.64
2022-12-08T12:17:07.940Z,99560.50
2022-12-08T12:22:18.120Z,99553.02
2022-12-08T12:27:41.684Z,99547.73
2022-12-08T12:32:47.145Z,99539.53
2022-12-08T12:37:50.559Z,99537.80
2022-12-08T12:42:56.532Z,99529.49
2022-12-08T12:48:00.251Z,99521.17
2022-12-08T12:53:26.503Z,99517.83
2022-12-08T12:58:32.515Z,99512.39
2022-12-08T13:03:56.474Z,99510.14
2022-12-08T13:09:00.695Z,99509.29
2022-12-08T13:14:05.346Z,99511.80
2022-12-08T13:19:16.541Z,99508.33
2022-12-08T13:24:25.582Z,99501.92
2022-12-08T13:29:29.811Z,99499.10
2022-12-08T13:34:47.252Z,99493.40
2022-12-08T13:39:52.712Z,99494.86
2022-12-08T13:45:28.016Z,99493.95
2022-12-08T14:01:29.817Z,99491.19
2022-12-08T14:06:38.448Z,99490.77
2022-12-08T14:12:04.293Z,99490.00
2022-12-08T14:17:16.820Z,99494.32
2022-12-08T14:22:20.229Z,99490.86
2022-12-08T14:27:26.412Z,99486.61
2022-12-08T14:32:31.669Z,99480.33
2022-12-08T14:37:43.760Z,99475.95
2022-12-08T14:42:51.187Z,99477.82
2022-12-08T14:47:54.295Z,99473.59
2022-12-08T14:52:57.705Z,99476.88
2022-12-08T14:58:01.535Z,99479.34
2022-12-08T15:03:08.065Z,99481.42
2022-12-08T15:08:13.534Z,99482.45
2022-12-08T15:13:17.909Z,99483.02
2022-12-08T15:18:41.568Z,99483.41
2022-12-08T15:23:46.445Z,99486.51
2022-12-08T15:28:50.471Z,99490.00
2022-12-08T15:33:53.575Z,99490.56
2022-12-08T15:38:56.883Z,99491.31
2022-12-08T15:44:00.092Z,99486.90
2022-12-08T15:49:03.711Z,99484.62
2022-12-08T15:54:06.916Z,99483.59
2022-12-08T15:59:17.509Z,99487.30
2022-12-08T16:05:25.221Z,99491.84
2022-12-08T16:09:46.202Z,99491.46
2022-12-08T16:20:18.527Z,99493.21
2022-12-08T16:25:23.618Z,99488.46
2022-12-08T16:30:30.779Z,99491.38
2022-12-08T16:35:35.034Z,99489.77
2022-12-08T16:40:58.635Z,99492.45
2022-12-08T16:46:03.110Z,99494.27
2022-12-08T16:51:11.101Z,99490.05
2022-12-08T16:56:20.545Z,99482.39
2022-12-08T17:01:25.771Z,99477.88
2022-12-08T17:06:29.624Z,99479.58
2022-12-08T17:11:39.149Z,99480.09
2022-12-08T17:16:46.063Z,99482.98
2022-12-08T17:21:49.794Z,99483.60
2022-12-08T17:26:55.913Z,99487.42
2022-12-08T17:32:00.029Z,99492.72
2022-12-08T17:37:04.124Z,99490.93
2022-12-08T17:42:07.639Z,99491.86
2022-12-08T17:47:11.157Z,99492.23
2022-12-08T17:52:15.436Z,99491.03
2022-12-08T17:57:18.698Z,99486.55
2022-12-08T18:02:22.660Z,99478.30
2022-12-08T18:07:26.043Z,99475.17
2022-12-08T18:12:29.350Z,99474.95
2022-12-08T18:17:32.553Z,99469.44
2022-12-08T18:22:36.066Z,99467.72
2022-12-08T18:27:43.145Z,99466.20
2022-12-08T18:32:47.095Z,99458.89
2022-12-08T18:37:51.128Z,99450.10
2022-12-08T18:42:54.438Z,99444.88
2022-12-08T18:47:57.643Z,99438.48
2022-12-08T18:53:00.852Z,99441.21
2022-12-08T18:58:04.592Z,99448.72
2022-12-08T19:03:09.263Z,99449.96
2022-12-08T19:08:15.388Z,99446.52
2022-12-08T19:13:19.226Z,99443.85
2022-12-08T19:18:23.158Z,99441.20
2022-12-08T19:23:27.095Z,99436.94
2022-12-08T19:28:33.202Z,99439.92
2022-12-08T19:33:37.971Z,99438.73
2022-12-08T19:39:00.771Z,99438.42
2022-12-08T19:44:20.247Z,99435.38
2022-12-08T19:49:24.588Z,99434.52
2022-12-08T19:54:28.296Z,99428.23
2022-12-08T19:59:31.913Z,99420.51
2022-12-08T20:04:35.566Z,99425.63
2022-12-08T20:09:39.057Z,99430.30
2022-12-08T20:14:45.827Z,99429.56
2022-12-08T20:19:49.870Z,99425.84
2022-12-08T20:24:59.450Z,99420.67
2022-12-08T20:30:16.812Z,99422.33
2022-12-08T20:35:22.233Z,99427.13
2022-12-08T20:40:26.254Z,99432.25
2022-12-08T20:45:29.660Z,99440.88
2022-12-08T20:50:33.078Z,99446.42
2022-12-08T20:55:38.222Z,99450.00
2022-12-08T21:00:42.339Z,99448.84
2022-12-08T21:05:50.827Z,99455.02
2022-12-08T21:10:56.736Z,99460.73
2022-12-08T21:16:00.302Z,99464.35
2022-12-08T21:21:06.637Z,99470.21
2022-12-08T21:26:18.711Z,99479.42
2022-12-08T21:31:22.533Z,99481.23
2022-12-08T21:36:26.270Z,99484.39
2022-12-08T21:41:49.338Z,99491.57
2022-12-08T21:46:52.686Z,99493.29
2022-12-08T21:51:56.919Z,99494.42
2022-12-08T21:57:00.351Z,99490.71
2022-12-08T22:02:03.884Z,99495.14
2022-12-08T22:07:08.176Z,99493.14
2022-12-08T22:12:12.356Z,99496.38
2022-12-08T22:17:16.749Z,99497.28
2022-12-08T22:22:20.100Z,99497.16
2022-12-08T22:27:23.307Z,99496.94
2022-12-08T22:32:26.806Z,99503.52
2022-12-08T22:37:30.262Z,99500.48
2022-12-08T22:42:33.912Z,99503.66
2022-12-08T22:47:37.366Z,99508.06
2022-12-08T22:52:40.552Z,99510.67
2022-12-08T22:57:43.680Z,99515.45
2022-12-08T23:02:47.151Z,99518.08
2022-12-08T23:07:51.703Z,99518.60
2022-12-08T23:12:59.225Z,99520.31
2022-12-08T23:18:06.542Z,99520.40
2022-12-08T23:23:09.838Z,99521.42
2022-12-08T23:28:14.946Z,99518.23
2022-12-08T23:33:18.379Z,99513.80
2022-12-08T23:38:21.739Z,99523.86
2022-12-08T23:43:25.327Z,99526.65
2022-12-08T23:48:29.314Z,99525.68
2022-12-08T23:53:33.718Z,99528.94
2022-12-08T23:58:37.532Z,99527.19
